createdAt,value
2019-01-24T00:01:07.750Z,36.73
2019-01-24T00:03:38.121Z,40.20
2019-01-24T00:06:09.567Z,34.50
2019-01-24T00:08:39.815Z,35.40
2019-01-24T00:11:11.225Z,42.07
2019-01-24T00:13:41.479Z,39.57
2019-01-24T00:16:11.772Z,40.90
2019-01-24T00:18:42.231Z,36.43
2019-01-24T00:21:12.447Z,52.77
2019-01-24T00:23:42.994Z,49.80
2019-01-24T00:26:16.047Z,42.20
2019-01-24T00:28:46.501Z,43.93
2019-01-24T00:31:18.236Z,40.97
2019-01-24T00:33:48.486Z,42.73
2019-01-24T00:36:20.878Z,46.90
2019-01-24T00:38:51.387Z,44.37
2019-01-24T00:41:21.902Z,51.40
2019-01-24T00:43:52.146Z,48.80
2019-01-24T00:46:23.568Z,45.70
2019-01-24T00:48:53.819Z,49.00
2019-01-24T00:51:24.310Z,48.87
2019-01-24T00:53:54.566Z,45.57
2019-01-24T00:56:25.981Z,49.27
2019-01-24T00:58:56.234Z,49.30
2019-01-24T01:01:26.475Z,53.03
2019-01-24T01:03:56.991Z,48.67
2019-01-24T01:06:28.537Z,55.00
2019-01-24T01:08:59.271Z,52.47
2019-01-24T01:11:29.498Z,50.07
2019-01-24T01:14:00.939Z,50.80
2019-01-24T01:16:32.062Z,53.00
2019-01-24T01:19:02.316Z,48.27
2019-01-24T01:21:32.529Z,52.10
2019-01-24T01:24:02.779Z,52.30
2019-01-24T01:26:34.183Z,45.30
2019-01-24T01:29:04.497Z,58.70
2019-01-24T01:31:35.855Z,53.80
2019-01-24T01:34:08.553Z,53.10
2019-01-24T01:36:38.772Z,51.43
2019-01-24T01:39:10.611Z,45.20
2019-01-24T01:41:41.041Z,49.03
2019-01-24T01:44:11.292Z,49.70
2019-01-24T01:46:41.512Z,45.30
2019-01-24T01:49:11.755Z,43.07
2019-01-24T01:51:43.166Z,50.67
2019-01-24T01:54:13.412Z,44.93
2019-01-24T01:56:43.631Z,50.40
2019-01-24T01:59:13.877Z,49.67
2019-01-24T02:01:45.903Z,55.10
2019-01-24T02:04:16.149Z,53.37
2019-01-24T02:06:46.365Z,45.20
2019-01-24T02:09:16.610Z,56.03
2019-01-24T02:11:48.022Z,44.30
2019-01-24T02:14:18.258Z,44.43
2019-01-24T02:16:49.385Z,54.17
2019-01-24T02:19:19.626Z,62.57
2019-01-24T02:21:49.847Z,47.37
2019-01-24T02:24:21.295Z,52.37
2019-01-24T02:26:54.263Z,46.03
2019-01-24T02:29:24.514Z,51.80
2019-01-24T02:31:57.493Z,49.13
2019-01-24T02:34:27.718Z,47.97
2019-01-24T02:36:57.936Z,46.57
2019-01-24T02:39:28.172Z,47.13
2019-01-24T02:41:59.595Z,48.93
2019-01-24T02:44:29.834Z,46.50
2019-01-24T02:47:00.964Z,51.83
2019-01-24T02:49:31.208Z,43.70
2019-01-24T02:52:01.431Z,52.43
2019-01-24T02:54:31.679Z,46.37
2019-01-24T02:57:03.078Z,56.20
2019-01-24T02:59:33.327Z,52.27
2019-01-24T03:02:05.223Z,46.57
2019-01-24T03:04:35.606Z,51.80
2019-01-24T03:07:05.826Z,55.10
2019-01-24T03:09:36.066Z,51.90
2019-01-24T03:12:07.494Z,49.87
2019-01-24T03:14:37.740Z,46.20
2019-01-24T03:17:09.163Z,50.33
2019-01-24T03:19:39.403Z,45.83
2019-01-24T03:22:10.593Z,46.67
2019-01-24T03:24:42.917Z,44.17
2019-01-24T03:27:13.142Z,49.80
2019-01-24T03:29:43.377Z,49.30
2019-01-24T03:32:14.804Z,42.17
2019-01-24T03:34:45.033Z,49.83
2019-01-24T03:37:15.256Z,45.43
2019-01-24T03:39:45.493Z,41.23
2019-01-24T03:42:16.920Z,48.10
2019-01-24T03:44:47.160Z,53.10
2019-01-24T03:47:17.374Z,52.10
2019-01-24T03:49:47.620Z,50.07
2019-01-24T03:52:19.036Z,47.67
2019-01-24T03:54:49.281Z,40.20
2019-01-24T03:57:19.500Z,49.83
2019-01-24T03:59:49.739Z,47.87
2019-01-24T04:02:20.853Z,50.10
2019-01-24T04:04:51.091Z,45.93
2019-01-24T04:07:22.518Z,45.90
2019-01-24T04:09:52.761Z,41.00
2019-01-24T04:12:22.972Z,42.27
2019-01-24T04:14:53.217Z,50.77
2019-01-24T04:17:24.644Z,45.13
2019-01-24T04:19:54.882Z,48.37
2019-01-24T04:22:25.102Z,42.17
2019-01-24T04:24:55.364Z,43.80
2019-01-24T04:27:25.840Z,44.90
2019-01-24T04:29:56.078Z,38.03
2019-01-24T04:32:26.300Z,45.00
2019-01-24T04:34:57.758Z,44.17
2019-01-24T04:37:29.792Z,46.37
2019-01-24T04:40:00.118Z,41.43
2019-01-24T04:42:31.487Z,45.73
2019-01-24T04:45:01.730Z,45.03
2019-01-24T04:47:32.222Z,56.00
2019-01-24T04:50:02.854Z,40.70
2019-01-24T04:52:33.281Z,42.53
2019-01-24T04:55:04.290Z,42.23
2019-01-24T04:57:34.647Z,37.17
2019-01-24T05:00:12.807Z,38.83
2019-01-24T05:02:44.003Z,42.70
2019-01-24T05:05:14.256Z,32.83
2019-01-24T05:07:45.369Z,43.23
2019-01-24T05:10:18.066Z,42.90
2019-01-24T05:12:48.283Z,34.53
2019-01-24T05:15:19.607Z,38.27
2019-01-24T05:17:49.943Z,42.33
2019-01-24T05:20:20.194Z,39.77
2019-01-24T05:22:50.417Z,33.17
2019-01-24T05:25:21.866Z,38.17
2019-01-24T05:27:52.375Z,37.90
2019-01-24T05:30:24.868Z,33.73
2019-01-24T05:32:56.266Z,31.47
2019-01-24T05:35:34.719Z,29.37
2019-01-24T05:38:00.630Z,34.27
2019-01-24T05:40:30.879Z,32.63
2019-01-24T05:43:01.099Z,31.50
2019-01-24T05:45:31.340Z,25.97
2019-01-24T05:48:02.754Z,25.73
2019-01-24T05:50:33.002Z,29.10
2019-01-24T05:53:04.424Z,29.17
2019-01-24T05:55:34.668Z,32.10
2019-01-24T05:58:04.893Z,37.43
2019-01-24T06:00:39.422Z,35.30
2019-01-24T06:03:11.149Z,29.07
2019-01-24T06:05:41.886Z,27.40
2019-01-24T06:08:12.521Z,29.77
2019-01-24T06:10:46.143Z,32.10
2019-01-24T06:13:16.646Z,31.13
2019-01-24T06:15:46.890Z,31.67
2019-01-24T06:18:17.109Z,34.27
2019-01-24T06:20:48.263Z,28.17
2019-01-24T06:23:18.479Z,33.00
2019-01-24T06:25:48.724Z,34.23
2019-01-24T06:28:20.130Z,32.83
2019-01-24T06:30:50.376Z,28.17
2019-01-24T06:33:20.597Z,27.37
2019-01-24T06:35:50.838Z,28.77
2019-01-24T06:38:22.250Z,27.93
2019-01-24T06:40:52.503Z,31.37
2019-01-24T06:43:23.949Z,31.20
2019-01-24T06:45:54.201Z,33.33
2019-01-24T06:58:19.021Z,32.23
2019-01-24T07:00:49.259Z,24.57
2019-01-24T07:03:20.266Z,46.20
2019-01-24T07:05:55.316Z,26.00
2019-01-24T07:08:22.575Z,27.27
2019-01-24T07:10:55.916Z,33.17
2019-01-24T07:13:26.170Z,34.20
2019-01-24T07:15:56.396Z,27.70
2019-01-24T07:18:26.645Z,28.00
2019-01-24T07:20:57.945Z,36.00
2019-01-24T07:23:28.181Z,34.07
2019-01-24T07:25:58.414Z,28.50
2019-01-24T07:28:29.552Z,32.30
2019-01-24T07:30:59.773Z,34.13
2019-01-24T07:33:30.010Z,47.13
2019-01-24T07:36:02.296Z,89.20
2019-01-24T07:38:33.549Z,128.50
2019-01-24T07:41:03.769Z,50.03
2019-01-24T07:43:34.004Z,61.73
2019-01-24T07:46:04.596Z,36.23
2019-01-24T07:48:34.839Z,44.33
2019-01-24T07:51:05.324Z,40.10
2019-01-24T07:53:35.571Z,45.87
2019-01-24T07:56:05.793Z,38.07
2019-01-24T07:58:36.030Z,39.17
2019-01-24T08:01:06.427Z,35.00
2019-01-24T08:03:37.576Z,42.57
2019-01-24T08:06:09.145Z,36.10
2019-01-24T08:08:39.873Z,50.67
2019-01-24T08:11:11.009Z,34.23
2019-01-24T08:13:41.251Z,42.13
2019-01-24T08:16:11.473Z,84.57
2019-01-24T08:18:41.734Z,62.70
2019-01-24T08:21:11.963Z,47.03
2019-01-24T08:23:43.776Z,41.50
2019-01-24T08:26:14.188Z,35.80
2019-01-24T08:28:44.438Z,70.50
2019-01-24T08:31:14.671Z,96.37
2019-01-24T08:33:44.920Z,60.07
2019-01-24T08:36:15.664Z,73.13
2019-01-24T08:38:46.352Z,41.20
2019-01-24T08:41:16.588Z,80.60
2019-01-24T08:43:47.116Z,50.07
2019-01-24T08:46:17.346Z,308.43
2019-01-24T08:48:47.615Z,267.67
2019-01-24T08:51:19.594Z,272.47
2019-01-24T08:53:49.858Z,124.70
2019-01-24T08:56:20.086Z,159.13
2019-01-24T08:58:50.338Z,137.17
2019-01-24T09:01:20.572Z,142.50
2019-01-24T09:03:51.629Z,48.47
2019-01-24T09:06:22.639Z,52.33
2019-01-24T09:08:53.130Z,81.73
2019-01-24T09:11:23.357Z,60.40
2019-01-24T09:13:53.656Z,46.80
2019-01-24T09:16:23.895Z,44.90
2019-01-24T09:18:54.147Z,41.83
2019-01-24T09:21:26.435Z,40.73
2019-01-24T09:23:56.685Z,47.20
2019-01-24T09:26:28.862Z,54.30
2019-01-24T09:28:59.115Z,45.43
2019-01-24T09:31:31.217Z,46.33
2019-01-24T09:34:01.476Z,36.63
2019-01-24T09:36:31.923Z,42.90
2019-01-24T09:39:02.356Z,40.33
2019-01-24T09:41:35.308Z,35.53
2019-01-24T09:44:05.563Z,52.23
2019-01-24T09:46:35.812Z,36.67
2019-01-24T09:49:06.081Z,32.40
2019-01-24T09:51:37.732Z,43.43
2019-01-24T09:54:10.773Z,118.50
2019-01-24T09:56:43.230Z,51.53
2019-01-24T09:59:13.472Z,40.63
2019-01-24T10:01:44.784Z,39.50
2019-01-24T10:04:15.936Z,31.83
2019-01-24T10:06:46.173Z,30.83
2019-01-24T10:09:16.442Z,48.33
2019-01-24T10:11:46.693Z,39.43
2019-01-24T10:14:16.950Z,39.97
2019-01-24T10:16:47.457Z,44.80
2019-01-24T10:19:17.896Z,41.37
2019-01-24T10:21:48.136Z,31.70
2019-01-24T10:24:18.390Z,43.93
2019-01-24T10:26:48.612Z,36.50
2019-01-24T10:29:18.874Z,55.07
2019-01-24T10:31:49.111Z,42.73
2019-01-24T10:34:19.374Z,42.67
2019-01-24T10:36:49.712Z,53.67
2019-01-24T10:39:19.959Z,52.17
2019-01-24T10:41:50.174Z,48.23
2019-01-24T10:44:20.426Z,39.70
2019-01-24T10:46:52.619Z,51.30
2019-01-24T10:49:23.990Z,50.70
2019-01-24T10:51:54.221Z,49.80
2019-01-24T10:54:24.791Z,52.97
2019-01-24T10:56:55.028Z,41.60
2019-01-24T10:59:25.424Z,35.23
2019-01-24T11:01:55.650Z,46.97
2019-01-24T11:04:26.777Z,49.63
2019-01-24T11:06:59.625Z,46.07
2019-01-24T11:09:31.689Z,46.00
2019-01-24T11:12:02.026Z,31.13
2019-01-24T11:14:32.445Z,32.63
2019-01-24T11:17:03.284Z,31.73
2019-01-24T11:19:35.674Z,25.50
2019-01-24T11:22:10.507Z,20.53
2019-01-24T11:24:43.960Z,52.10
2019-01-24T11:27:14.907Z,69.07
2019-01-24T11:29:46.823Z,37.63
2019-01-24T11:32:17.156Z,59.67
2019-01-24T11:34:47.564Z,55.53
2019-01-24T11:37:17.837Z,86.60
2019-01-24T11:40:10.117Z,85.57
2019-01-24T11:42:41.582Z,74.80
2019-01-24T11:45:15.259Z,85.43
2019-01-24T11:47:45.626Z,58.87
2019-01-24T11:50:18.502Z,37.07
2019-01-24T11:52:51.307Z,55.97
2019-01-24T11:55:23.378Z,59.77
2019-01-24T11:57:55.622Z,45.30
2019-01-24T12:00:32.456Z,63.10
2019-01-24T12:03:02.836Z,45.33
2019-01-24T12:05:35.072Z,110.20
2019-01-24T12:08:06.171Z,38.53
2019-01-24T12:10:36.428Z,68.90
2019-01-24T12:13:06.759Z,56.07
2019-01-24T12:15:37.207Z,44.40
2019-01-24T12:18:07.457Z,46.77
2019-01-24T12:20:41.363Z,68.67
2019-01-24T12:23:13.236Z,31.87
2019-01-24T12:25:43.485Z,63.47
2019-01-24T12:28:17.040Z,55.17
2019-01-24T12:30:47.285Z,66.57
2019-01-24T12:33:17.670Z,43.90
2019-01-24T12:35:47.951Z,39.10
2019-01-24T12:38:19.347Z,30.03
2019-01-24T12:40:50.846Z,61.17
2019-01-24T12:43:22.271Z,45.60
2019-01-24T12:45:54.614Z,50.60
2019-01-24T12:48:24.860Z,50.60
2019-01-24T12:50:56.277Z,70.83
2019-01-24T12:53:26.531Z,49.70
2019-01-24T12:55:57.956Z,66.90
2019-01-24T12:58:28.208Z,96.20
2019-01-24T13:00:59.649Z,66.10
2019-01-24T13:03:31.121Z,43.70
2019-01-24T13:06:02.263Z,97.47
2019-01-24T13:08:33.700Z,61.63
2019-01-24T13:11:07.177Z,99.77
2019-01-24T13:13:37.518Z,65.87
2019-01-24T13:16:08.955Z,76.10
2019-01-24T13:18:39.199Z,46.53
2019-01-24T13:21:10.624Z,62.63
2019-01-24T13:23:41.796Z,104.33
2019-01-24T13:26:13.215Z,56.30
2019-01-24T13:28:43.505Z,83.43
2019-01-24T13:31:14.887Z,50.40
2019-01-24T13:33:45.133Z,41.10
2019-01-24T13:36:16.569Z,55.30
2019-01-24T13:38:46.847Z,78.87
2019-01-24T13:41:18.251Z,77.30
2019-01-24T13:43:48.526Z,59.50
2019-01-24T13:46:20.095Z,47.80
2019-01-24T13:49:02.252Z,94.63
2019-01-24T13:51:34.515Z,105.30
2019-01-24T13:54:07.075Z,101.87
2019-01-24T13:56:42.969Z,85.13
2019-01-24T13:59:19.889Z,96.87
2019-01-24T14:01:52.592Z,57.30
2019-01-24T14:04:26.231Z,41.23
2019-01-24T14:06:57.325Z,47.30
2019-01-24T14:09:27.575Z,71.27
2019-01-24T14:11:58.088Z,44.37
2019-01-24T14:14:28.811Z,40.00
2019-01-24T14:16:59.158Z,37.40
2019-01-24T14:19:30.632Z,39.50
2019-01-24T14:22:03.670Z,43.33
2019-01-24T14:24:34.132Z,106.17
2019-01-24T14:27:05.573Z,48.27
2019-01-24T14:29:35.849Z,81.97
2019-01-24T14:32:08.900Z,61.63
2019-01-24T14:34:42.090Z,58.00
2019-01-24T14:37:13.516Z,50.27
2019-01-24T14:39:43.770Z,71.03
2019-01-24T14:42:15.195Z,89.27
2019-01-24T14:44:47.273Z,177.67
2019-01-24T14:47:21.670Z,45.23
2019-01-24T14:49:51.919Z,29.13
2019-01-24T14:52:22.223Z,102.83
2019-01-24T14:54:52.464Z,68.97
2019-01-24T14:57:22.706Z,59.27
2019-01-24T14:59:52.943Z,60.00
2019-01-24T15:02:23.416Z,59.80
2019-01-24T15:04:55.301Z,34.27
2019-01-24T15:07:26.731Z,36.13
2019-01-24T15:09:57.166Z,47.97
2019-01-24T15:12:27.399Z,54.37
2019-01-24T15:15:01.968Z,79.43
2019-01-24T15:17:36.053Z,32.97
2019-01-24T15:20:15.974Z,66.07
2019-01-24T15:22:49.198Z,74.37
2019-01-24T15:25:21.393Z,107.17
2019-01-24T15:27:58.924Z,88.43
2019-01-24T15:30:32.879Z,89.37
2019-01-24T15:33:03.262Z,106.70
2019-01-24T15:35:34.426Z,93.70
2019-01-24T15:38:06.287Z,76.97
2019-01-24T15:40:36.527Z,64.00
2019-01-24T15:43:06.912Z,42.60
2019-01-24T15:45:38.568Z,34.90
2019-01-24T15:48:08.779Z,43.67
2019-01-24T15:50:39.140Z,45.63
2019-01-24T15:53:10.564Z,41.33
2019-01-24T15:55:41.932Z,66.97
2019-01-24T15:58:12.240Z,57.80
2019-01-24T16:00:45.731Z,27.80
2019-01-24T16:03:15.952Z,31.33
2019-01-24T16:05:46.319Z,26.23
2019-01-24T16:08:17.453Z,37.80
2019-01-24T16:10:47.688Z,39.87
2019-01-24T16:13:18.187Z,61.03
2019-01-24T16:15:48.434Z,61.93
2019-01-24T16:18:19.724Z,36.33
2019-01-24T16:20:50.882Z,54.30
2019-01-24T16:23:22.791Z,29.37
2019-01-24T16:26:02.425Z,32.00
2019-01-24T16:28:35.800Z,35.17
2019-01-24T16:31:11.055Z,35.07
2019-01-24T16:33:41.482Z,44.70
2019-01-24T16:36:15.485Z,34.27
2019-01-24T16:38:46.006Z,38.57
2019-01-24T16:41:17.531Z,40.00
2019-01-24T16:43:47.898Z,49.77
2019-01-24T16:46:19.731Z,39.97
2019-01-24T16:48:50.179Z,37.57
2019-01-24T16:51:21.655Z,47.33
2019-01-24T16:53:52.151Z,62.20
2019-01-24T16:56:23.333Z,71.80
2019-01-24T16:58:57.093Z,83.00
2019-01-24T17:01:31.713Z,58.47
2019-01-24T17:04:06.479Z,53.67
2019-01-24T17:06:38.682Z,32.27
2019-01-24T17:09:10.279Z,31.17
2019-01-24T17:11:43.749Z,52.23
2019-01-24T17:14:22.151Z,48.60
2019-01-24T17:16:50.846Z,58.83
2019-01-24T17:19:22.047Z,35.00
2019-01-24T17:21:58.871Z,63.93
2019-01-24T17:24:29.133Z,53.80
2019-01-24T17:26:59.505Z,48.50
2019-01-24T17:29:29.722Z,84.87
2019-01-24T17:31:59.971Z,80.40
2019-01-24T17:34:31.425Z,64.57
2019-01-24T17:37:01.704Z,124.27
2019-01-24T17:39:31.928Z,162.83
2019-01-24T17:42:02.197Z,97.43
2019-01-24T17:44:33.489Z,123.53
2019-01-24T17:47:03.739Z,38.63
2019-01-24T17:49:33.984Z,58.33
2019-01-24T17:52:10.899Z,54.73
2019-01-24T17:54:44.225Z,87.50
2019-01-24T17:57:17.201Z,64.20
2019-01-24T17:59:47.428Z,47.37
2019-01-24T18:02:17.671Z,65.73
2019-01-24T18:04:47.902Z,230.37
2019-01-24T18:07:18.274Z,127.20
2019-01-24T18:09:48.522Z,115.40
2019-01-24T18:12:19.847Z,113.67
2019-01-24T18:14:50.080Z,269.00
2019-01-24T18:17:20.695Z,181.83
2019-01-24T18:19:52.477Z,87.00
2019-01-24T18:22:22.723Z,119.57
2019-01-24T18:24:53.044Z,136.63
2019-01-24T18:27:25.846Z,73.47
2019-01-24T18:29:59.215Z,92.23
2019-01-24T18:35:09.466Z,113.63
2019-01-24T18:37:43.207Z,227.47
2019-01-24T18:40:17.809Z,232.73
2019-01-24T18:42:48.442Z,189.83
2019-01-24T18:45:28.829Z,93.37
2019-01-24T18:47:59.152Z,72.30
2019-01-24T18:50:30.981Z,91.67
2019-01-24T18:53:06.375Z,55.13
2019-01-24T18:55:39.616Z,35.13
2019-01-24T18:58:10.770Z,44.10
2019-01-24T19:00:44.456Z,62.10
2019-01-24T19:03:21.267Z,59.37
2019-01-24T19:05:54.623Z,39.67
2019-01-24T19:08:25.254Z,51.50
2019-01-24T19:10:55.708Z,40.83
2019-01-24T19:13:28.399Z,94.13
2019-01-24T19:16:00.571Z,67.40
2019-01-24T19:18:33.076Z,57.57
2019-01-24T19:21:03.911Z,42.67
2019-01-24T19:23:34.242Z,72.43
2019-01-24T19:26:04.481Z,56.27
2019-01-24T19:28:34.806Z,66.10
2019-01-24T19:31:06.096Z,49.70
2019-01-24T19:33:36.623Z,53.67
2019-01-24T19:36:07.114Z,56.20
2019-01-24T19:38:53.038Z,48.10
2019-01-24T19:41:24.076Z,62.30
2019-01-24T19:43:54.836Z,53.97
2019-01-24T19:46:25.073Z,58.10
2019-01-24T19:48:55.334Z,101.10
2019-01-24T19:51:27.109Z,43.07
2019-01-24T19:53:59.221Z,29.67
2019-01-24T19:56:31.127Z,30.40
2019-01-24T19:59:03.247Z,45.13
2019-01-24T20:01:33.956Z,40.30
2019-01-24T20:04:04.172Z,44.73
2019-01-24T20:06:34.424Z,54.00
2019-01-24T20:09:06.596Z,71.63
2019-01-24T20:11:38.573Z,53.70
2019-01-24T20:14:10.562Z,45.00
2019-01-24T20:16:40.819Z,43.80
2019-01-24T20:19:11.049Z,46.37
2019-01-24T20:21:41.359Z,59.57
2019-01-24T20:24:11.596Z,141.70
2019-01-24T20:26:41.850Z,82.63
2019-01-24T20:29:12.072Z,55.40
2019-01-24T20:31:42.322Z,34.50
2019-01-24T20:34:12.546Z,31.33
2019-01-24T20:36:42.810Z,103.20
2019-01-24T20:39:13.041Z,60.53
2019-01-24T20:41:43.337Z,28.17
2019-01-24T20:44:15.202Z,56.97
2019-01-24T20:46:45.628Z,44.17
2019-01-24T20:49:17.759Z,67.60
2019-01-24T20:51:55.724Z,83.80
2019-01-24T20:54:27.086Z,46.73
2019-01-24T20:56:58.503Z,35.87
2019-01-24T20:59:32.884Z,40.53
2019-01-24T21:02:04.833Z,38.80
2019-01-24T21:04:36.367Z,40.07
2019-01-24T21:07:06.602Z,33.80
2019-01-24T21:09:36.836Z,28.80
2019-01-24T21:12:07.085Z,24.57
2019-01-24T21:14:38.350Z,32.63
2019-01-24T21:17:08.590Z,27.73
2019-01-24T21:19:40.100Z,23.67
2019-01-24T21:22:10.585Z,202.43
2019-01-24T21:24:40.814Z,78.53
2019-01-24T21:27:12.251Z,49.87
2019-01-24T21:29:42.541Z,42.07
2019-01-24T21:32:15.225Z,35.73
2019-01-24T21:34:46.736Z,37.93
2019-01-24T21:37:19.281Z,45.30
2019-01-24T21:39:49.520Z,30.80
2019-01-24T21:42:22.481Z,32.63
2019-01-24T21:44:53.921Z,39.87
2019-01-24T21:47:24.889Z,36.43
2019-01-24T21:49:55.452Z,39.77
2019-01-24T21:52:27.243Z,45.43
2019-01-24T21:54:57.802Z,44.73
2019-01-24T21:57:28.532Z,32.97
2019-01-24T22:00:01.820Z,90.07
2019-01-24T22:02:35.130Z,78.63
2019-01-24T22:05:08.274Z,39.33
2019-01-24T22:07:38.580Z,61.10
2019-01-24T22:10:26.359Z,42.17
2019-01-24T22:12:58.437Z,40.47
2019-01-24T22:15:30.992Z,51.33
2019-01-24T22:18:02.469Z,41.43
2019-01-24T22:20:32.807Z,40.53
2019-01-24T22:23:03.610Z,33.60
2019-01-24T22:25:35.410Z,38.00
2019-01-24T22:28:06.059Z,29.03
2019-01-24T22:30:40.958Z,61.37
2019-01-24T22:33:11.495Z,40.43
2019-01-24T22:35:43.443Z,37.87
2019-01-24T22:38:15.400Z,46.23
2019-01-24T22:40:45.864Z,37.43
2019-01-24T22:43:16.375Z,44.07
2019-01-24T22:45:47.070Z,30.67
2019-01-24T22:48:18.762Z,32.17
2019-01-24T22:50:49.157Z,34.83
2019-01-24T22:53:19.416Z,37.17
2019-01-24T22:55:49.659Z,40.97
2019-01-24T22:58:19.918Z,65.80
2019-01-24T23:00:59.059Z,58.40
2019-01-24T23:03:42.220Z,49.90
2019-01-24T23:06:12.462Z,37.73
2019-01-24T23:08:42.715Z,43.90
2019-01-24T23:11:12.953Z,37.30
2019-01-24T23:13:43.216Z,44.23
2019-01-24T23:16:14.426Z,41.50
2019-01-24T23:18:44.955Z,38.93
2019-01-24T23:21:15.192Z,39.23
2019-01-24T23:23:45.457Z,35.70
2019-01-24T23:26:15.689Z,45.53
2019-01-24T23:28:45.961Z,41.53
2019-01-24T23:31:16.197Z,38.87
2019-01-24T23:33:46.584Z,45.53
2019-01-24T23:36:16.823Z,41.03
2019-01-24T23:38:47.081Z,46.37
2019-01-24T23:41:17.317Z,53.97
2019-01-24T23:43:47.590Z,52.97
2019-01-24T23:46:17.827Z,45.07
2019-01-24T23:48:48.084Z,46.03
2019-01-24T23:51:18.308Z,39.53
2019-01-24T23:53:48.594Z,42.23
2019-01-24T23:56:18.830Z,50.23
2019-01-24T23:58:49.084Z,44.70
